createdAt,value
2024-03-15T00:00:15.794Z,97.70
2024-03-15T00:02:46.578Z,97.50
2024-03-15T00:05:15.161Z,97.80
2024-03-15T00:07:43.700Z,98.00
2024-03-15T00:10:12.163Z,98.00
2024-03-15T00:12:40.696Z,97.90
2024-03-15T00:15:10.578Z,98.20
2024-03-15T00:17:39.210Z,98.30
2024-03-15T00:20:09.220Z,98.70
2024-03-15T00:22:38.023Z,99.20
2024-03-15T00:25:08.335Z,99.00
2024-03-15T00:27:36.885Z,99.40
2024-03-15T00:30:06.740Z,99.20
2024-03-15T00:32:35.388Z,99.20
2024-03-15T00:35:04.116Z,98.80
2024-03-15T00:37:32.625Z,98.90
2024-03-15T00:40:01.079Z,98.10
2024-03-15T00:42:30.392Z,97.20
2024-03-15T00:44:59.034Z,96.80
2024-03-15T00:47:27.592Z,96.20
2024-03-15T00:49:56.076Z,96.50
2024-03-15T00:52:24.709Z,96.20
2024-03-15T00:54:53.253Z,96.00
2024-03-15T00:57:21.740Z,95.30
2024-03-15T00:59:50.216Z,95.30
2024-03-15T01:02:18.729Z,95.10
2024-03-15T01:04:47.334Z,94.90
2024-03-15T01:07:15.868Z,94.20
2024-03-15T01:09:44.412Z,93.60
2024-03-15T01:12:14.778Z,93.10
2024-03-15T01:14:43.297Z,92.90
2024-03-15T01:17:11.757Z,93.00
2024-03-15T01:19:40.279Z,92.70
2024-03-15T01:22:09.158Z,92.70
2024-03-15T01:24:37.711Z,92.70
2024-03-15T01:27:06.470Z,92.10
2024-03-15T01:29:34.993Z,91.60
2024-03-15T01:32:03.440Z,91.70
2024-03-15T01:34:32.091Z,91.30
2024-03-15T01:37:00.560Z,91.10
2024-03-15T01:39:29.274Z,91.00
2024-03-15T01:41:57.732Z,91.20
2024-03-15T01:44:26.200Z,90.50
2024-03-15T01:46:54.658Z,90.10
2024-03-15T01:49:23.137Z,91.10
2024-03-15T01:51:51.614Z,92.10
2024-03-15T01:54:20.126Z,91.60
2024-03-15T01:56:48.632Z,93.10
2024-03-15T01:59:17.112Z,92.90
2024-03-15T02:01:48.996Z,93.90
2024-03-15T02:04:18.052Z,93.00
2024-03-15T02:06:46.676Z,94.20
2024-03-15T02:09:15.489Z,94.30
2024-03-15T02:11:44.168Z,95.00
2024-03-15T02:14:12.632Z,93.80
2024-03-15T02:16:41.114Z,94.40
2024-03-15T02:19:11.328Z,93.40
2024-03-15T02:21:39.876Z,93.60
2024-03-15T02:24:08.416Z,94.20
2024-03-15T02:26:37.709Z,93.80
2024-03-15T02:29:09.107Z,93.90
2024-03-15T02:31:38.119Z,93.50
2024-03-15T02:34:06.630Z,92.90
2024-03-15T02:36:35.305Z,93.00
2024-03-15T02:39:03.852Z,92.80
2024-03-15T02:41:32.999Z,92.20
2024-03-15T02:44:02.112Z,91.90
2024-03-15T02:46:30.650Z,92.00
2024-03-15T02:49:01.498Z,92.60
2024-03-15T02:51:30.156Z,93.00
2024-03-15T02:53:58.650Z,92.40
2024-03-15T02:56:27.328Z,89.50
2024-03-15T02:58:55.794Z,88.30
2024-03-15T03:01:26.602Z,86.70
2024-03-15T03:03:56.332Z,86.30
2024-03-15T03:06:25.508Z,86.40
2024-03-15T03:08:54.133Z,86.80
2024-03-15T03:11:22.572Z,87.30
2024-03-15T03:13:50.067Z,86.80
2024-03-15T03:16:21.954Z,84.20
2024-03-15T03:18:50.480Z,84.00
2024-03-15T03:21:18.968Z,83.60
2024-03-15T03:23:47.503Z,83.70
2024-03-15T03:26:16.141Z,84.10
2024-03-15T03:28:44.611Z,84.60
2024-03-15T03:31:13.033Z,84.80
2024-03-15T03:33:41.577Z,85.70
2024-03-15T03:36:10.108Z,86.20
2024-03-15T03:38:38.608Z,86.80
2024-03-15T03:41:07.978Z,87.60
2024-03-15T03:43:36.532Z,87.40
2024-03-15T03:46:08.099Z,86.40
2024-03-15T03:48:36.705Z,85.80
2024-03-15T03:51:05.598Z,85.00
2024-03-15T03:53:35.228Z,84.40
2024-03-15T03:56:03.745Z,84.80
2024-03-15T03:58:32.212Z,85.20
2024-03-15T04:01:03.598Z,85.70
2024-03-15T04:03:32.594Z,85.70
2024-03-15T04:06:01.541Z,86.60
2024-03-15T04:08:30.016Z,87.30
2024-03-15T04:10:58.537Z,88.10
2024-03-15T04:13:26.955Z,89.70
2024-03-15T04:15:55.666Z,90.70
2024-03-15T04:18:24.352Z,92.10
2024-03-15T04:20:53.549Z,92.10
2024-03-15T04:23:23.230Z,92.90
2024-03-15T04:25:51.740Z,93.20
2024-03-15T04:28:20.675Z,93.20
2024-03-15T04:30:49.894Z,92.10
2024-03-15T04:33:19.122Z,90.70
2024-03-15T04:35:47.720Z,90.20
2024-03-15T04:38:16.219Z,90.40
2024-03-15T04:40:45.107Z,90.10
2024-03-15T04:43:13.625Z,91.10
2024-03-15T04:45:42.096Z,91.30
2024-03-15T04:48:10.683Z,90.10
2024-03-15T04:50:39.161Z,90.00
2024-03-15T04:53:07.652Z,90.40
2024-03-15T04:55:36.176Z,91.60
2024-03-15T04:58:04.798Z,92.40
2024-03-15T05:00:33.237Z,92.10
2024-03-15T05:03:02.018Z,93.10
2024-03-15T05:05:30.490Z,91.50
2024-03-15T05:07:58.989Z,89.40
2024-03-15T05:10:27.705Z,88.30
2024-03-15T05:12:56.567Z,86.00
2024-03-15T05:15:25.072Z,84.60
2024-03-15T05:17:53.601Z,84.90
2024-03-15T05:20:22.083Z,84.30
2024-03-15T05:22:51.083Z,84.90
2024-03-15T05:25:19.700Z,83.40
2024-03-15T05:27:48.520Z,84.60
2024-03-15T05:30:19.936Z,85.30
2024-03-15T05:32:49.016Z,86.40
2024-03-15T05:35:20.310Z,87.20
2024-03-15T05:37:48.988Z,87.60
2024-03-15T05:40:19.224Z,87.80
2024-03-15T05:42:49.201Z,87.20
2024-03-15T05:45:19.048Z,86.50
2024-03-15T05:47:48.245Z,86.00
2024-03-15T05:50:16.855Z,85.40
2024-03-15T05:52:45.372Z,84.90
2024-03-15T05:55:14.783Z,85.40
2024-03-15T05:57:43.325Z,84.60
2024-03-15T06:00:17.137Z,84.80
2024-03-15T06:02:46.523Z,85.90
2024-03-15T06:05:15.093Z,86.90
2024-03-15T06:07:43.924Z,88.00
2024-03-15T06:10:12.453Z,87.50
2024-03-15T06:12:41.002Z,85.60
2024-03-15T06:15:10.909Z,78.60
2024-03-15T06:17:41.170Z,72.80
2024-03-15T06:20:11.669Z,66.00
2024-03-15T06:22:40.648Z,62.30
2024-03-15T06:25:09.347Z,61.70
2024-03-15T06:27:40.566Z,63.40
2024-03-15T06:30:11.225Z,65.40
2024-03-15T06:32:41.294Z,69.70
2024-03-15T06:35:28.272Z,73.00
2024-03-15T06:38:08.641Z,75.50
2024-03-15T06:40:57.376Z,75.00
2024-03-15T06:43:41.455Z,75.80
2024-03-15T06:46:11.016Z,75.70
2024-03-15T06:48:56.704Z,79.10
2024-03-15T06:51:43.052Z,84.10
2024-03-15T06:54:12.762Z,87.70
2024-03-15T06:56:43.163Z,90.90
2024-03-15T06:59:12.954Z,94.10
2024-03-15T07:01:41.539Z,95.10
2024-03-15T07:04:10.237Z,96.00
2024-03-15T07:06:38.847Z,96.10
2024-03-15T07:09:12.881Z,96.20
2024-03-15T07:11:41.745Z,95.70
2024-03-15T07:14:10.829Z,96.30
2024-03-15T07:16:39.315Z,95.30
2024-03-15T07:19:08.118Z,92.50
2024-03-15T07:21:39.433Z,92.00
2024-03-15T07:24:09.114Z,91.40
2024-03-15T07:26:38.500Z,90.20
2024-03-15T07:29:07.071Z,89.60
2024-03-15T07:31:36.066Z,86.60
2024-03-15T07:34:06.850Z,86.40
2024-03-15T07:36:35.525Z,87.80
2024-03-15T07:39:04.727Z,80.60
2024-03-15T07:41:35.554Z,76.00
2024-03-15T07:44:04.968Z,75.70
2024-03-15T07:46:34.154Z,77.20
2024-03-15T07:49:02.734Z,76.10
2024-03-15T07:51:32.252Z,79.80
2024-03-15T07:54:00.776Z,79.20
2024-03-15T07:56:29.328Z,80.30
2024-03-15T07:58:58.508Z,80.90
2024-03-15T08:01:27.059Z,79.60
2024-03-15T08:03:55.637Z,80.20
2024-03-15T08:06:24.279Z,79.80
2024-03-15T08:08:53.478Z,81.00
2024-03-15T08:11:22.248Z,82.50
2024-03-15T08:13:50.714Z,84.40
2024-03-15T08:16:25.167Z,83.90
2024-03-15T08:18:55.014Z,83.50
2024-03-15T08:21:26.025Z,83.80
2024-03-15T08:23:54.685Z,86.30
2024-03-15T08:26:23.232Z,86.00
2024-03-15T08:28:52.081Z,87.20
2024-03-15T08:31:20.632Z,86.40
2024-03-15T08:33:49.895Z,86.30
2024-03-15T08:36:18.441Z,87.80
2024-03-15T08:38:47.441Z,89.00
2024-03-15T08:41:15.928Z,89.00
2024-03-15T08:43:44.372Z,89.80
2024-03-15T08:46:12.909Z,90.30
2024-03-15T08:48:43.422Z,89.60
2024-03-15T08:51:13.157Z,90.20
2024-03-15T08:53:43.358Z,90.30
2024-03-15T08:56:11.844Z,90.40
2024-03-15T08:58:40.333Z,90.10
2024-03-15T09:01:08.940Z,90.80
2024-03-15T09:03:39.900Z,89.30
2024-03-15T09:06:09.650Z,89.40
2024-03-15T09:08:38.427Z,90.70
2024-03-15T09:11:08.095Z,91.10
2024-03-15T09:13:39.490Z,90.80
2024-03-15T09:16:10.915Z,91.70
2024-03-15T09:18:40.033Z,88.90
2024-03-15T09:21:10.306Z,90.30
2024-03-15T09:23:38.985Z,84.00
2024-03-15T09:26:08.509Z,86.20
2024-03-15T09:28:39.492Z,85.00
2024-03-15T09:31:18.555Z,83.90
2024-03-15T09:33:59.467Z,83.70
2024-03-15T09:36:29.662Z,83.10
2024-03-15T09:38:58.292Z,82.70
2024-03-15T09:41:26.740Z,79.50
2024-03-15T09:43:55.795Z,74.40
2024-03-15T09:46:26.378Z,76.30
2024-03-15T09:48:57.897Z,80.00
2024-03-15T09:51:26.855Z,82.30
2024-03-15T09:53:55.356Z,86.30
2024-03-15T09:56:23.844Z,89.60
2024-03-15T09:58:52.303Z,91.40
2024-03-15T10:01:21.079Z,92.20
2024-03-15T10:03:50.133Z,93.50
2024-03-15T10:06:18.844Z,94.40
2024-03-15T10:08:47.403Z,95.50
2024-03-15T10:11:15.888Z,98.00
2024-03-15T10:13:44.566Z,99.90
2024-03-15T10:16:13.972Z,99.90
2024-03-15T10:18:42.519Z,99.90
2024-03-15T10:21:11.261Z,99.90
2024-03-15T10:23:39.983Z,99.90
2024-03-15T10:26:09.278Z,99.90
2024-03-15T10:28:37.768Z,99.90
2024-03-15T10:31:06.369Z,99.90
2024-03-15T10:33:37.141Z,99.90
2024-03-15T10:36:09.937Z,99.90
2024-03-15T10:38:39.757Z,99.90
2024-03-15T10:41:08.312Z,99.90
2024-03-15T10:43:37.076Z,99.90
2024-03-15T10:46:06.415Z,99.90
2024-03-15T10:48:35.188Z,99.90
2024-03-15T10:51:03.796Z,99.90
2024-03-15T10:53:32.283Z,99.90
2024-03-15T10:56:01.340Z,99.90
2024-03-15T10:58:31.045Z,99.90
2024-03-15T11:00:59.681Z,99.90
2024-03-15T11:03:31.975Z,99.90
2024-03-15T11:06:03.224Z,99.90
2024-03-15T11:08:35.327Z,99.90
2024-03-15T11:11:04.061Z,99.90
2024-03-15T11:13:34.967Z,99.90
2024-03-15T11:16:03.602Z,99.90
2024-03-15T11:18:41.341Z,99.90
2024-03-15T11:21:10.624Z,99.90
2024-03-15T11:23:39.128Z,99.90
2024-03-15T11:26:09.487Z,99.90
2024-03-15T11:28:38.149Z,99.90
2024-03-15T11:31:06.740Z,99.90
2024-03-15T11:33:35.300Z,99.90
2024-03-15T11:36:03.926Z,99.90
2024-03-15T11:38:32.380Z,99.90
2024-03-15T11:41:01.940Z,99.90
2024-03-15T11:43:31.089Z,99.90
2024-03-15T11:45:59.649Z,99.90
2024-03-15T11:48:28.290Z,99.90
2024-03-15T11:50:56.837Z,99.90
2024-03-15T11:53:25.271Z,99.90
2024-03-15T11:55:53.792Z,99.90
2024-03-15T11:58:22.342Z,97.20
2024-03-15T12:00:51.094Z,90.50
2024-03-15T12:03:19.831Z,88.90
2024-03-15T12:05:48.355Z,79.40
2024-03-15T12:08:16.838Z,83.60
2024-03-15T12:10:45.990Z,84.20
2024-03-15T12:13:17.787Z,69.70
2024-03-15T12:15:47.065Z,74.80
2024-03-15T12:18:16.228Z,64.30
2024-03-15T12:20:44.873Z,55.70
2024-03-15T12:23:14.131Z,54.50
2024-03-15T12:25:42.668Z,63.10
2024-03-15T12:28:12.012Z,60.80
2024-03-15T12:30:42.091Z,51.90
2024-03-15T12:33:11.287Z,64.10
2024-03-15T12:35:40.866Z,64.10
2024-03-15T12:38:10.244Z,61.60
2024-03-15T12:40:44.397Z,63.70
2024-03-15T12:43:13.354Z,64.00
2024-03-15T12:45:43.090Z,69.10
2024-03-15T12:48:12.757Z,63.40
2024-03-15T12:50:42.147Z,61.60
2024-03-15T12:53:11.300Z,65.00
2024-03-15T12:55:41.510Z,70.30
2024-03-15T12:58:10.536Z,67.10
2024-03-15T13:00:39.369Z,68.30
2024-03-15T13:03:10.142Z,68.70
2024-03-15T13:05:38.866Z,66.30
2024-03-15T13:08:07.500Z,63.00
2024-03-15T13:10:35.946Z,59.30
2024-03-15T13:13:05.937Z,55.70
2024-03-15T13:15:35.185Z,54.50
2024-03-15T13:18:03.987Z,56.50
2024-03-15T13:20:32.607Z,60.70
2024-03-15T13:23:06.035Z,60.20
2024-03-15T13:25:38.171Z,63.60
2024-03-15T13:28:09.152Z,60.90
2024-03-15T13:30:39.567Z,58.00
2024-03-15T13:33:11.162Z,57.40
2024-03-15T13:35:43.250Z,50.20
2024-03-15T13:38:15.757Z,54.40
2024-03-15T13:40:45.156Z,58.30
2024-03-15T13:43:14.195Z,61.40
2024-03-15T13:45:42.856Z,56.40
2024-03-15T13:48:13.426Z,57.60
2024-03-15T13:50:42.430Z,56.90
2024-03-15T13:53:10.898Z,52.00
2024-03-15T13:55:40.845Z,52.50
2024-03-15T13:58:09.773Z,43.30
2024-03-15T14:00:41.979Z,41.40
2024-03-15T14:03:11.200Z,37.20
2024-03-15T14:05:41.025Z,35.20
2024-03-15T14:08:10.426Z,38.20
2024-03-15T14:10:39.562Z,37.90
2024-03-15T14:13:08.327Z,35.60
2024-03-15T14:15:38.324Z,34.70
2024-03-15T14:18:09.206Z,33.70
2024-03-15T14:20:38.334Z,32.50
2024-03-15T14:23:06.845Z,33.70
2024-03-15T14:25:35.516Z,29.30
2024-03-15T14:28:06.964Z,34.80
2024-03-15T14:30:37.486Z,27.50
2024-03-15T14:33:08.785Z,24.20
2024-03-15T14:35:37.605Z,26.90
2024-03-15T14:38:09.922Z,33.00
2024-03-15T14:40:40.457Z,28.20
2024-03-15T14:43:12.752Z,19.80
2024-03-15T14:45:41.943Z,9.90
2024-03-15T14:48:15.494Z,3.10
2024-03-15T14:50:45.541Z,2.30
2024-03-15T14:53:17.180Z,3.30
2024-03-15T14:55:47.052Z,1.00
2024-03-15T14:58:16.156Z,1.00
2024-03-15T15:00:49.695Z,1.00
2024-03-15T15:03:19.057Z,1.00
2024-03-15T15:05:48.082Z,1.00
2024-03-15T15:08:16.665Z,1.00
2024-03-15T15:10:45.257Z,1.00
2024-03-15T15:13:14.040Z,1.00
2024-03-15T15:15:43.343Z,1.10
2024-03-15T15:18:13.104Z,1.70
2024-03-15T15:20:43.585Z,2.10
2024-03-15T15:23:12.312Z,2.90
2024-03-15T15:25:41.284Z,4.60
2024-03-15T15:28:10.257Z,6.80
2024-03-15T15:30:39.218Z,7.00
2024-03-15T15:33:09.308Z,9.50
2024-03-15T15:35:38.733Z,11.10
2024-03-15T15:38:08.856Z,12.20
2024-03-15T15:40:39.072Z,9.40
2024-03-15T15:43:08.212Z,15.00
2024-03-15T15:45:38.400Z,11.40
2024-03-15T15:48:09.240Z,10.70
2024-03-15T15:50:39.012Z,10.00
2024-03-15T15:53:07.505Z,8.90
2024-03-15T15:55:37.305Z,9.60
2024-03-15T15:58:06.404Z,9.20
2024-03-15T16:00:34.130Z,9.00
2024-03-15T16:03:04.341Z,11.70
2024-03-15T16:05:33.770Z,13.30
2024-03-15T16:08:04.359Z,14.20
2024-03-15T16:10:33.268Z,20.00
2024-03-15T16:13:02.758Z,20.40
2024-03-15T16:15:31.744Z,25.20
2024-03-15T16:18:00.409Z,31.50
2024-03-15T16:20:29.658Z,32.40
2024-03-15T16:22:59.375Z,32.70
2024-03-15T16:25:27.811Z,35.20
2024-03-15T16:27:56.337Z,33.60
2024-03-15T16:30:25.183Z,36.90
2024-03-15T16:33:01.683Z,37.70
2024-03-15T16:35:32.735Z,39.40
2024-03-15T16:38:01.286Z,41.50
2024-03-15T16:40:29.948Z,43.90
2024-03-15T16:43:00.230Z,53.70
2024-03-15T16:45:29.003Z,56.50
2024-03-15T16:47:57.673Z,56.60
2024-03-15T16:50:26.766Z,61.00
2024-03-15T16:52:55.386Z,58.40
2024-03-15T16:55:25.049Z,58.70
2024-03-15T16:57:53.714Z,57.30
2024-03-15T17:00:23.507Z,57.40
2024-03-15T17:02:53.419Z,51.20
2024-03-15T17:05:22.015Z,52.60
2024-03-15T17:07:53.151Z,53.00
2024-03-15T17:10:22.858Z,54.50
2024-03-15T17:12:51.835Z,50.60
2024-03-15T17:15:20.615Z,52.90
2024-03-15T17:17:49.361Z,55.30
2024-03-15T17:20:19.787Z,56.70
2024-03-15T17:22:48.252Z,59.20
2024-03-15T17:25:16.941Z,62.30
2024-03-15T17:27:45.398Z,64.50
2024-03-15T17:30:16.786Z,67.00
2024-03-15T17:32:45.570Z,69.00
2024-03-15T17:35:14.157Z,70.00
2024-03-15T17:37:44.076Z,71.60
2024-03-15T17:40:14.120Z,73.50
2024-03-15T17:42:42.753Z,75.10
2024-03-15T17:45:11.598Z,77.30
2024-03-15T17:47:40.356Z,78.40
2024-03-15T17:50:09.427Z,79.20
2024-03-15T17:52:39.502Z,80.50
2024-03-15T17:55:09.416Z,82.20
2024-03-15T17:57:39.115Z,82.70
2024-03-15T18:00:14.293Z,83.60
2024-03-15T18:02:45.407Z,85.20
2024-03-15T18:05:14.499Z,86.10
2024-03-15T18:07:43.103Z,86.60
2024-03-15T18:10:11.935Z,86.60
2024-03-15T18:12:40.779Z,87.80
2024-03-15T18:15:10.183Z,87.40
2024-03-15T18:17:39.358Z,86.40
2024-03-15T18:20:10.286Z,86.50
2024-03-15T18:22:39.052Z,87.00
2024-03-15T18:25:09.437Z,86.80
2024-03-15T18:27:38.191Z,87.10
2024-03-15T18:30:07.424Z,87.30
2024-03-15T18:32:35.933Z,87.90
2024-03-15T18:35:05.282Z,88.10
2024-03-15T18:37:34.125Z,87.70
2024-03-15T18:40:02.802Z,87.20
2024-03-15T18:42:31.337Z,86.40
2024-03-15T18:45:02.111Z,86.40
2024-03-15T18:47:31.644Z,85.00
2024-03-15T18:50:00.319Z,84.90
2024-03-15T18:52:28.779Z,85.60
2024-03-15T18:54:58.345Z,86.50
2024-03-15T18:57:27.651Z,86.90
2024-03-15T18:59:59.516Z,87.90
2024-03-15T19:02:28.172Z,88.70
2024-03-15T19:04:56.677Z,91.80
2024-03-15T19:07:25.367Z,96.10
2024-03-15T19:09:53.983Z,99.90
2024-03-15T19:12:22.695Z,85.30
2024-03-15T19:14:51.196Z,88.10
2024-03-15T19:17:19.669Z,90.40
2024-03-15T19:19:48.459Z,94.30
2024-03-15T19:22:16.937Z,96.50
2024-03-15T19:24:46.554Z,98.10
2024-03-15T19:27:14.058Z,99.70
2024-03-15T19:29:42.488Z,99.90
2024-03-15T19:32:12.467Z,99.90
2024-03-15T19:34:41.101Z,99.90
2024-03-15T19:37:09.798Z,99.90
2024-03-15T19:39:38.711Z,99.90
2024-03-15T19:42:07.366Z,99.90
2024-03-15T19:44:35.809Z,99.90
2024-03-15T19:47:05.592Z,99.90
2024-03-15T19:49:34.212Z,99.90
2024-03-15T19:52:02.920Z,99.90
2024-03-15T19:54:31.472Z,99.90
2024-03-15T19:56:59.953Z,99.90
2024-03-15T19:59:28.479Z,99.90
2024-03-15T20:01:57.285Z,99.90
2024-03-15T20:04:28.205Z,99.90
2024-03-15T20:06:58.041Z,99.90
2024-03-15T20:09:26.688Z,99.90
2024-03-15T20:11:55.441Z,99.90
2024-03-15T20:14:23.997Z,99.90
2024-03-15T20:16:52.466Z,99.90
2024-03-15T20:19:22.969Z,99.90
2024-03-15T20:21:51.659Z,99.90
2024-03-15T20:24:21.186Z,99.90
2024-03-15T20:26:50.655Z,99.90
2024-03-15T20:29:19.176Z,99.90
2024-03-15T20:31:47.623Z,99.90
2024-03-15T20:34:16.093Z,99.90
2024-03-15T20:36:44.583Z,99.90
2024-03-15T20:39:15.468Z,99.90
2024-03-15T20:41:44.152Z,99.90
2024-03-15T20:44:12.676Z,99.90
2024-03-15T20:46:41.878Z,99.90
2024-03-15T20:49:12.894Z,99.90
2024-03-15T20:51:41.545Z,99.90
2024-03-15T20:54:10.151Z,99.90
2024-03-15T20:56:38.662Z,99.90
2024-03-15T20:59:07.120Z,99.90
2024-03-15T21:01:35.645Z,99.90
2024-03-15T21:04:04.204Z,99.90
2024-03-15T21:06:35.068Z,99.90
2024-03-15T21:09:06.618Z,99.90
2024-03-15T21:11:35.205Z,99.90
2024-03-15T21:14:06.200Z,99.90
2024-03-15T21:16:34.689Z,99.90
2024-03-15T21:19:03.278Z,99.90
2024-03-15T21:21:31.809Z,99.90
2024-03-15T21:24:00.347Z,99.90
2024-03-15T21:26:29.228Z,99.90
2024-03-15T21:28:57.708Z,99.90
2024-03-15T21:31:26.169Z,99.90
2024-03-15T21:33:54.723Z,99.90
2024-03-15T21:36:23.988Z,99.90
2024-03-15T21:38:52.549Z,99.90
2024-03-15T21:41:20.997Z,99.90
2024-03-15T21:43:50.390Z,99.90
2024-03-15T21:46:23.291Z,99.90
2024-03-15T21:48:51.841Z,99.90
2024-03-15T21:51:23.049Z,99.90
2024-03-15T21:53:51.624Z,99.90
2024-03-15T21:56:21.632Z,99.90
2024-03-15T21:58:51.506Z,99.90
2024-03-15T22:01:20.568Z,99.90
2024-03-15T22:03:49.438Z,99.90
2024-03-15T22:06:16.987Z,99.90
2024-03-15T22:08:45.423Z,99.90
2024-03-15T22:11:13.937Z,99.90
2024-03-15T22:13:42.443Z,99.90
2024-03-15T22:16:12.363Z,99.90
2024-03-15T22:18:41.967Z,99.90
2024-03-15T22:21:10.463Z,99.90
2024-03-15T22:23:38.899Z,99.90
2024-03-15T22:26:07.918Z,99.90
2024-03-15T22:28:37.877Z,99.90
2024-03-15T22:31:06.492Z,99.90
2024-03-15T22:33:36.069Z,99.90
2024-03-15T22:36:05.332Z,99.90
2024-03-15T22:38:33.774Z,99.90
2024-03-15T22:41:02.306Z,99.90
2024-03-15T22:43:31.557Z,99.90
2024-03-15T22:46:00.794Z,99.90
2024-03-15T22:48:35.506Z,99.90
2024-03-15T22:51:04.028Z,99.90
2024-03-15T22:53:32.486Z,99.90
2024-03-15T22:56:00.982Z,99.90
2024-03-15T22:58:29.472Z,99.90
2024-03-15T23:01:00.413Z,99.90
2024-03-15T23:03:29.319Z,99.90
2024-03-15T23:05:57.870Z,99.90
2024-03-15T23:08:28.206Z,99.90
2024-03-15T23:10:56.677Z,99.90
2024-03-15T23:13:25.594Z,99.90
2024-03-15T23:15:55.897Z,99.90
2024-03-15T23:18:25.932Z,99.90
2024-03-15T23:20:54.665Z,99.90
2024-03-15T23:23:23.125Z,99.90
2024-03-15T23:25:51.581Z,99.90
2024-03-15T23:28:20.947Z,99.90
2024-03-15T23:30:49.480Z,99.90
2024-03-15T23:33:18.587Z,99.90
2024-03-15T23:35:49.712Z,99.90
2024-03-15T23:38:18.646Z,99.90
2024-03-15T23:40:47.122Z,99.90
2024-03-15T23:43:15.672Z,99.90
2024-03-15T23:45:44.239Z,99.90
2024-03-15T23:48:13.836Z,99.90
2024-03-15T23:50:42.323Z,99.90
2024-03-15T23:53:10.791Z,99.90
2024-03-15T23:55:39.288Z,99.90
2024-03-15T23:58:07.810Z,99.90
